sensor_id;sensor_type;location;lat;lon;timestamp;pressure;altitude;pressure_sealevel;temperature;humidity
16806;BME280;8520;50.102;20.010;2022-12-10T00:01:27;96825.00;;;5.22;80.86
16806;BME280;8520;50.102;20.010;2022-12-10T00:03:55;96830.34;;;5.16;80.82
16806;BME280;8520;50.102;20.010;2022-12-10T00:06:27;96827.81;;;4.98;81.42
16806;BME280;8520;50.102;20.010;2022-12-10T00:08:56;96836.38;;;4.91;81.72
16806;BME280;8520;50.102;20.010;2022-12-10T00:11:24;96840.59;;;4.92;81.57
16806;BME280;8520;50.102;20.010;2022-12-10T00:13:53;96846.63;;;5.10;81.30
16806;BME280;8520;50.102;20.010;2022-12-10T00:16:24;96843.16;;;5.10;81.27
16806;BME280;8520;50.102;20.010;2022-12-10T00:18:53;96841.44;;;4.83;82.01
16806;BME280;8520;50.102;20.010;2022-12-10T00:21:22;96855.16;;;4.74;82.30
16806;BME280;8520;50.102;20.010;2022-12-10T00:23:52;96841.06;;;4.75;82.54
16806;BME280;8520;50.102;20.010;2022-12-10T00:26:22;96850.34;;;4.54;83.03
16806;BME280;8520;50.102;20.010;2022-12-10T00:28:52;96843.50;;;4.73;82.70
16806;BME280;8520;50.102;20.010;2022-12-10T00:31:21;96842.66;;;4.82;82.46
16806;BME280;8520;50.102;20.010;2022-12-10T00:33:50;96846.34;;;4.79;82.13
16806;BME280;8520;50.102;20.010;2022-12-10T00:36:22;96843.88;;;4.81;81.88
16806;BME280;8520;50.102;20.010;2022-12-10T00:38:53;96848.50;;;4.90;81.52
16806;BME280;8520;50.102;20.010;2022-12-10T00:41:22;96844.16;;;4.83;81.64
16806;BME280;8520;50.102;20.010;2022-12-10T00:43:50;96853.06;;;4.39;83.11
16806;BME280;8520;50.102;20.010;2022-12-10T00:46:19;96864.63;;;4.49;83.30
16806;BME280;8520;50.102;20.010;2022-12-10T00:48:47;96863.38;;;3.87;86.26
16806;BME280;8520;50.102;20.010;2022-12-10T00:51:17;96860.50;;;3.82;85.47
16806;BME280;8520;50.102;20.010;2022-12-10T00:53:47;96854.38;;;4.44;84.97
16806;BME280;8520;50.102;20.010;2022-12-10T00:56:19;96850.47;;;4.36;84.27
16806;BME280;8520;50.102;20.010;2022-12-10T00:58:48;96846.09;;;4.14;84.40
16806;BME280;8520;50.102;20.010;2022-12-10T01:01:18;96846.66;;;4.18;85.47
16806;BME280;8520;50.102;20.010;2022-12-10T01:03:49;96852.56;;;4.41;84.53
16806;BME280;8520;50.102;20.010;2022-12-10T01:06:22;96849.13;;;4.55;84.08
16806;BME280;8520;50.102;20.010;2022-12-10T01:08:52;96846.81;;;4.92;82.52
16806;BME280;8520;50.102;20.010;2022-12-10T01:11:24;96853.34;;;4.56;83.31
16806;BME280;8520;50.102;20.010;2022-12-10T01:13:53;96855.56;;;4.67;83.11
16806;BME280;8520;50.102;20.010;2022-12-10T01:16:22;96854.97;;;4.63;83.22
16806;BME280;8520;50.102;20.010;2022-12-10T01:18:52;96847.66;;;4.69;82.79
16806;BME280;8520;50.102;20.010;2022-12-10T01:21:22;96850.28;;;4.93;82.17
16806;BME280;8520;50.102;20.010;2022-12-10T01:23:51;96855.72;;;4.63;82.33
16806;BME280;8520;50.102;20.010;2022-12-10T01:26:23;96857.88;;;4.59;82.63
16806;BME280;8520;50.102;20.010;2022-12-10T01:28:54;96856.88;;;5.01;82.04
16806;BME280;8520;50.102;20.010;2022-12-10T01:31:24;96856.16;;;4.85;82.29
16806;BME280;8520;50.102;20.010;2022-12-10T01:33:53;96872.31;;;4.89;82.17
16806;BME280;8520;50.102;20.010;2022-12-10T01:36:24;96879.59;;;4.53;83.54
16806;BME280;8520;50.102;20.010;2022-12-10T01:38:52;96884.22;;;4.62;83.61
16806;BME280;8520;50.102;20.010;2022-12-10T01:41:24;96880.94;;;4.58;83.81
16806;BME280;8520;50.102;20.010;2022-12-10T01:43:55;96882.94;;;4.34;84.41
16806;BME280;8520;50.102;20.010;2022-12-10T01:46:25;96887.72;;;3.91;84.92
16806;BME280;8520;50.102;20.010;2022-12-10T01:48:55;96880.09;;;3.71;86.61
16806;BME280;8520;50.102;20.010;2022-12-10T01:51:26;96880.13;;;3.95;86.53
16806;BME280;8520;50.102;20.010;2022-12-10T01:53:56;96874.38;;;3.69;86.89
16806;BME280;8520;50.102;20.010;2022-12-10T01:56:26;96887.50;;;3.70;87.63
16806;BME280;8520;50.102;20.010;2022-12-10T01:58:55;96894.19;;;4.03;86.62
16806;BME280;8520;50.102;20.010;2022-12-10T02:01:28;96882.97;;;4.24;85.42
16806;BME280;8520;50.102;20.010;2022-12-10T02:04:06;96895.38;;;4.02;85.79
16806;BME280;8520;50.102;20.010;2022-12-10T02:06:45;96896.47;;;3.62;87.39
16806;BME280;8520;50.102;20.010;2022-12-10T02:09:25;96891.88;;;3.77;87.16
16806;BME280;8520;50.102;20.010;2022-12-10T02:12:05;96900.56;;;3.66;87.62
16806;BME280;8520;50.102;20.010;2022-12-10T02:14:43;96898.31;;;3.89;86.56
16806;BME280;8520;50.102;20.010;2022-12-10T02:17:18;96890.88;;;3.56;87.71
16806;BME280;8520;50.102;20.010;2022-12-10T02:20:02;96900.34;;;4.12;86.66
16806;BME280;8520;50.102;20.010;2022-12-10T02:22:35;96895.59;;;3.89;86.69
16806;BME280;8520;50.102;20.010;2022-12-10T02:25:07;96891.03;;;3.95;86.52
16806;BME280;8520;50.102;20.010;2022-12-10T02:27:46;96900.91;;;3.50;88.22
16806;BME280;8520;50.102;20.010;2022-12-10T02:30:17;96897.22;;;3.29;89.02
16806;BME280;8520;50.102;20.010;2022-12-10T02:32:47;96893.00;;;3.01;90.50
16806;BME280;8520;50.102;20.010;2022-12-10T02:35:21;96895.97;;;3.39;89.24
16806;BME280;8520;50.102;20.010;2022-12-10T02:37:53;96890.06;;;3.41;89.59
16806;BME280;8520;50.102;20.010;2022-12-10T02:40:30;96890.13;;;3.56;88.65
16806;BME280;8520;50.102;20.010;2022-12-10T02:43:01;96904.28;;;3.36;88.89
16806;BME280;8520;50.102;20.010;2022-12-10T02:45:31;96897.81;;;3.24;90.41
16806;BME280;8520;50.102;20.010;2022-12-10T02:48:02;96914.13;;;3.33;88.98
16806;BME280;8520;50.102;20.010;2022-12-10T02:50:36;96919.78;;;3.63;88.86
16806;BME280;8520;50.102;20.010;2022-12-10T02:53:05;96923.47;;;3.41;88.78
16806;BME280;8520;50.102;20.010;2022-12-10T02:55:47;96921.06;;;3.34;88.97
16806;BME280;8520;50.102;20.010;2022-12-10T02:58:24;96917.47;;;3.10;90.34
16806;BME280;8520;50.102;20.010;2022-12-10T03:01:06;96923.25;;;3.63;88.97
16806;BME280;8520;50.102;20.010;2022-12-10T03:03:43;96923.81;;;3.77;87.52
16806;BME280;8520;50.102;20.010;2022-12-10T03:06:18;96926.75;;;3.55;88.01
16806;BME280;8520;50.102;20.010;2022-12-10T03:08:51;96917.66;;;3.67;88.37
16806;BME280;8520;50.102;20.010;2022-12-10T03:11:23;96918.13;;;3.56;89.07
16806;BME280;8520;50.102;20.010;2022-12-10T03:13:54;96916.91;;;3.06;89.93
16806;BME280;8520;50.102;20.010;2022-12-10T03:16:29;96928.09;;;2.90;91.46
16806;BME280;8520;50.102;20.010;2022-12-10T03:19:04;96917.69;;;2.79;92.41
16806;BME280;8520;50.102;20.010;2022-12-10T03:21:36;96916.28;;;3.20;91.41
16806;BME280;8520;50.102;20.010;2022-12-10T03:24:07;96920.91;;;3.38;90.39
16806;BME280;8520;50.102;20.010;2022-12-10T03:26:37;96924.56;;;3.26;90.20
16806;BME280;8520;50.102;20.010;2022-12-10T03:29:08;96923.25;;;3.03;91.23
16806;BME280;8520;50.102;20.010;2022-12-10T03:31:39;96929.28;;;2.98;92.20
16806;BME280;8520;50.102;20.010;2022-12-10T03:34:09;96913.41;;;3.14;91.34
16806;BME280;8520;50.102;20.010;2022-12-10T03:36:38;96922.72;;;3.41;90.33
16806;BME280;8520;50.102;20.010;2022-12-10T03:39:07;96928.78;;;3.36;90.14
16806;BME280;8520;50.102;20.010;2022-12-10T03:41:35;96939.41;;;3.16;90.77
16806;BME280;8520;50.102;20.010;2022-12-10T03:44:04;96940.59;;;3.24;91.47
16806;BME280;8520;50.102;20.010;2022-12-10T03:46:32;96931.09;;;3.10;91.36
16806;BME280;8520;50.102;20.010;2022-12-10T03:49:02;96931.84;;;3.10;91.07
16806;BME280;8520;50.102;20.010;2022-12-10T03:51:31;96936.84;;;3.12;91.96
16806;BME280;8520;50.102;20.010;2022-12-10T03:53:59;96930.81;;;2.90;92.63
16806;BME280;8520;50.102;20.010;2022-12-10T03:56:27;96929.09;;;3.20;91.97
16806;BME280;8520;50.102;20.010;2022-12-10T03:58:55;96935.63;;;3.74;90.23
16806;BME280;8520;50.102;20.010;2022-12-10T04:01:23;96938.81;;;4.05;88.59
16806;BME280;8520;50.102;20.010;2022-12-10T04:03:51;96945.78;;;3.64;88.01
16806;BME280;8520;50.102;20.010;2022-12-10T04:06:20;96957.84;;;3.30;89.87
16806;BME280;8520;50.102;20.010;2022-12-10T04:08:49;96958.25;;;3.47;90.63
16806;BME280;8520;50.102;20.010;2022-12-10T04:11:24;96964.75;;;3.58;89.93
16806;BME280;8520;50.102;20.010;2022-12-10T04:13:52;96961.63;;;3.32;90.26
16806;BME280;8520;50.102;20.010;2022-12-10T04:16:38;96972.78;;;3.43;91.23
16806;BME280;8520;50.102;20.010;2022-12-10T04:19:09;96986.06;;;3.60;89.29
16806;BME280;8520;50.102;20.010;2022-12-10T04:21:40;96993.75;;;3.70;89.15
16806;BME280;8520;50.102;20.010;2022-12-10T04:24:29;96986.66;;;3.55;89.86
16806;BME280;8520;50.102;20.010;2022-12-10T04:27:18;96993.34;;;3.54;89.83
16806;BME280;8520;50.102;20.010;2022-12-10T04:29:48;96999.25;;;3.43;90.61
16806;BME280;8520;50.102;20.010;2022-12-10T04:32:16;97006.88;;;3.81;89.58
16806;BME280;8520;50.102;20.010;2022-12-10T04:34:45;96996.25;;;3.92;87.93
16806;BME280;8520;50.102;20.010;2022-12-10T04:37:15;96989.97;;;3.77;88.48
16806;BME280;8520;50.102;20.010;2022-12-10T04:39:44;96979.69;;;3.63;89.31
16806;BME280;8520;50.102;20.010;2022-12-10T04:42:12;96975.03;;;3.45;89.68
16806;BME280;8520;50.102;20.010;2022-12-10T04:44:41;96978.56;;;3.00;90.92
16806;BME280;8520;50.102;20.010;2022-12-10T04:47:10;96981.59;;;2.74;92.00
16806;BME280;8520;50.102;20.010;2022-12-10T04:49:38;96978.56;;;3.00;92.71
16806;BME280;8520;50.102;20.010;2022-12-10T04:52:09;96981.72;;;3.26;91.39
16806;BME280;8520;50.102;20.010;2022-12-10T04:54:41;96994.75;;;3.31;90.79
16806;BME280;8520;50.102;20.010;2022-12-10T04:57:10;96992.63;;;2.80;92.11
16806;BME280;8520;50.102;20.010;2022-12-10T04:59:38;97000.31;;;3.27;91.76
16806;BME280;8520;50.102;20.010;2022-12-10T05:02:06;97008.19;;;3.34;90.52
16806;BME280;8520;50.102;20.010;2022-12-10T05:04:34;97003.97;;;3.06;90.96
16806;BME280;8520;50.102;20.010;2022-12-10T05:07:04;96999.28;;;3.16;91.22
16806;BME280;8520;50.102;20.010;2022-12-10T05:09:32;96989.91;;;3.26;90.85
16806;BME280;8520;50.102;20.010;2022-12-10T05:12:01;97000.66;;;3.11;91.57
16806;BME280;8520;50.102;20.010;2022-12-10T05:14:29;96998.69;;;3.21;90.95
16806;BME280;8520;50.102;20.010;2022-12-10T05:16:58;97002.59;;;3.01;91.60
16806;BME280;8520;50.102;20.010;2022-12-10T05:19:25;97004.56;;;3.01;91.88
16806;BME280;8520;50.102;20.010;2022-12-10T05:21:54;97000.78;;;3.26;91.00
16806;BME280;8520;50.102;20.010;2022-12-10T05:24:39;97010.31;;;3.49;90.38
16806;BME280;8520;50.102;20.010;2022-12-10T05:27:08;97016.91;;;3.75;89.35
16806;BME280;8520;50.102;20.010;2022-12-10T05:29:36;97025.97;;;4.23;87.73
16806;BME280;8520;50.102;20.010;2022-12-10T05:32:05;97026.59;;;4.51;86.31
16806;BME280;8520;50.102;20.010;2022-12-10T05:34:33;97035.88;;;4.45;85.89
16806;BME280;8520;50.102;20.010;2022-12-10T05:37:01;97048.41;;;4.18;85.85
16806;BME280;8520;50.102;20.010;2022-12-10T05:39:29;97059.16;;;4.22;87.13
16806;BME280;8520;50.102;20.010;2022-12-10T05:41:57;97064.53;;;3.89;87.31
16806;BME280;8520;50.102;20.010;2022-12-10T05:44:26;97066.47;;;4.07;87.17
16806;BME280;8520;50.102;20.010;2022-12-10T05:46:56;97071.66;;;4.38;86.48
16806;BME280;8520;50.102;20.010;2022-12-10T05:49:24;97074.63;;;4.58;85.65
16806;BME280;8520;50.102;20.010;2022-12-10T05:51:54;97057.34;;;4.52;84.67
16806;BME280;8520;50.102;20.010;2022-12-10T05:54:22;97061.91;;;4.46;85.28
16806;BME280;8520;50.102;20.010;2022-12-10T05:56:50;97069.59;;;4.56;84.85
16806;BME280;8520;50.102;20.010;2022-12-10T05:59:18;97066.28;;;4.52;84.55
16806;BME280;8520;50.102;20.010;2022-12-10T06:01:47;97061.53;;;4.29;85.14
16806;BME280;8520;50.102;20.010;2022-12-10T06:04:16;97038.75;;;3.48;88.42
16806;BME280;8520;50.102;20.010;2022-12-10T06:06:44;97034.22;;;3.26;90.10
16806;BME280;8520;50.102;20.010;2022-12-10T06:09:13;97021.22;;;3.12;90.75
16806;BME280;8520;50.102;20.010;2022-12-10T06:11:41;97012.59;;;3.04;91.26
16806;BME280;8520;50.102;20.010;2022-12-10T06:14:10;97040.69;;;3.20;91.11
16806;BME280;8520;50.102;20.010;2022-12-10T06:16:39;97045.84;;;3.27;91.33
16806;BME280;8520;50.102;20.010;2022-12-10T06:19:09;97044.94;;;3.02;90.73
16806;BME280;8520;50.102;20.010;2022-12-10T06:21:39;97037.34;;;2.70;92.50
16806;BME280;8520;50.102;20.010;2022-12-10T06:24:07;97037.53;;;2.94;92.96
16806;BME280;8520;50.102;20.010;2022-12-10T06:26:35;97037.16;;;2.55;94.40
16806;BME280;8520;50.102;20.010;2022-12-10T06:29:03;97036.81;;;2.44;95.14
16806;BME280;8520;50.102;20.010;2022-12-10T06:31:32;97042.47;;;2.59;94.56
16806;BME280;8520;50.102;20.010;2022-12-10T06:34:00;97052.66;;;2.95;94.16
16806;BME280;8520;50.102;20.010;2022-12-10T06:36:30;97054.31;;;3.10;92.39
16806;BME280;8520;50.102;20.010;2022-12-10T06:38:58;97056.09;;;3.87;89.97
16806;BME280;8520;50.102;20.010;2022-12-10T06:41:26;97059.31;;;3.49;89.67
16806;BME280;8520;50.102;20.010;2022-12-10T06:43:54;97064.78;;;3.30;90.07
16806;BME280;8520;50.102;20.010;2022-12-10T06:46:26;97064.59;;;3.43;89.58
16806;BME280;8520;50.102;20.010;2022-12-10T06:48:54;97077.44;;;3.70;90.22
16806;BME280;8520;50.102;20.010;2022-12-10T06:51:24;97074.41;;;3.77;88.66
16806;BME280;8520;50.102;20.010;2022-12-10T06:53:54;97079.44;;;3.60;89.45
16806;BME280;8520;50.102;20.010;2022-12-10T06:56:22;97091.47;;;3.96;88.10
16806;BME280;8520;50.102;20.010;2022-12-10T06:58:52;97094.03;;;4.09;88.02
16806;BME280;8520;50.102;20.010;2022-12-10T07:01:22;97099.81;;;3.92;88.37
16806;BME280;8520;50.102;20.010;2022-12-10T07:03:54;97108.16;;;3.70;88.35
16806;BME280;8520;50.102;20.010;2022-12-10T07:06:23;97111.28;;;4.15;87.74
16806;BME280;8520;50.102;20.010;2022-12-10T07:08:52;97115.13;;;4.41;86.57
16806;BME280;8520;50.102;20.010;2022-12-10T07:11:22;97128.84;;;4.56;85.54
16806;BME280;8520;50.102;20.010;2022-12-10T07:13:51;97133.06;;;4.66;84.06
16806;BME280;8520;50.102;20.010;2022-12-10T07:16:20;97131.47;;;4.50;84.42
16806;BME280;8520;50.102;20.010;2022-12-10T07:18:49;97120.53;;;3.99;85.97
16806;BME280;8520;50.102;20.010;2022-12-10T07:21:21;97116.16;;;3.83;87.34
16806;BME280;8520;50.102;20.010;2022-12-10T07:23:49;97120.09;;;3.91;87.44
16806;BME280;8520;50.102;20.010;2022-12-10T07:26:18;97115.50;;;4.25;86.46
16806;BME280;8520;50.102;20.010;2022-12-10T07:28:47;97124.19;;;4.47;85.17
16806;BME280;8520;50.102;20.010;2022-12-10T07:31:20;97126.97;;;4.29;84.86
16806;BME280;8520;50.102;20.010;2022-12-10T07:33:50;97138.50;;;4.24;86.11
16806;BME280;8520;50.102;20.010;2022-12-10T07:36:19;97144.34;;;3.71;86.85
16806;BME280;8520;50.102;20.010;2022-12-10T07:38:50;97137.22;;;3.74;88.11
16806;BME280;8520;50.102;20.010;2022-12-10T07:41:26;97133.44;;;3.71;87.77
16806;BME280;8520;50.102;20.010;2022-12-10T07:43:56;97132.69;;;3.61;89.25
16806;BME280;8520;50.102;20.010;2022-12-10T07:46:26;97142.66;;;3.83;87.94
16806;BME280;8520;50.102;20.010;2022-12-10T07:48:55;97132.94;;;4.00;87.38
16806;BME280;8520;50.102;20.010;2022-12-10T07:51:23;97144.94;;;3.75;87.66
16806;BME280;8520;50.102;20.010;2022-12-10T07:53:51;97139.34;;;3.88;88.02
16806;BME280;8520;50.102;20.010;2022-12-10T07:56:20;97132.63;;;4.07;87.51
16806;BME280;8520;50.102;20.010;2022-12-10T07:58:49;97119.72;;;4.26;86.65
16806;BME280;8520;50.102;20.010;2022-12-10T08:01:20;97123.00;;;3.69;88.47
16806;BME280;8520;50.102;20.010;2022-12-10T08:03:50;97119.34;;;3.91;88.47
16806;BME280;8520;50.102;20.010;2022-12-10T08:06:19;97116.31;;;3.89;88.17
16806;BME280;8520;50.102;20.010;2022-12-10T08:08:49;97124.81;;;3.72;89.77
16806;BME280;8520;50.102;20.010;2022-12-10T08:11:19;97119.06;;;3.43;89.28
16806;BME280;8520;50.102;20.010;2022-12-10T08:13:47;97125.44;;;3.58;90.31
16806;BME280;8520;50.102;20.010;2022-12-10T08:16:25;97129.50;;;3.72;89.11
16806;BME280;8520;50.102;20.010;2022-12-10T08:18:54;97137.38;;;3.88;87.70
16806;BME280;8520;50.102;20.010;2022-12-10T08:21:24;97133.44;;;3.43;89.16
16806;BME280;8520;50.102;20.010;2022-12-10T08:23:53;97142.06;;;3.60;89.38
16806;BME280;8520;50.102;20.010;2022-12-10T08:26:22;97136.13;;;3.98;88.27
16806;BME280;8520;50.102;20.010;2022-12-10T08:28:53;97147.06;;;3.62;88.70
16806;BME280;8520;50.102;20.010;2022-12-10T08:31:24;97151.75;;;3.43;89.11
16806;BME280;8520;50.102;20.010;2022-12-10T08:33:53;97159.59;;;3.32;89.81
16806;BME280;8520;50.102;20.010;2022-12-10T08:36:21;97153.72;;;3.61;89.50
16806;BME280;8520;50.102;20.010;2022-12-10T08:38:49;97159.47;;;3.90;89.16
16806;BME280;8520;50.102;20.010;2022-12-10T08:41:20;97166.13;;;3.89;88.15
16806;BME280;8520;50.102;20.010;2022-12-10T08:43:51;97160.84;;;3.95;87.77
16806;BME280;8520;50.102;20.010;2022-12-10T08:46:20;97164.63;;;3.79;87.62
16806;BME280;8520;50.102;20.010;2022-12-10T08:48:51;97153.91;;;4.45;86.86
16806;BME280;8520;50.102;20.010;2022-12-10T08:51:19;97158.19;;;4.79;85.59
16806;BME280;8520;50.102;20.010;2022-12-10T08:53:48;97149.13;;;4.64;85.38
16806;BME280;8520;50.102;20.010;2022-12-10T08:56:16;97150.19;;;4.24;86.29
16806;BME280;8520;50.102;20.010;2022-12-10T08:58:44;97149.44;;;4.66;85.45
16806;BME280;8520;50.102;20.010;2022-12-10T09:01:14;97142.97;;;3.94;86.86
16806;BME280;8520;50.102;20.010;2022-12-10T09:03:42;97135.09;;;3.96;88.55
16806;BME280;8520;50.102;20.010;2022-12-10T09:06:15;97138.28;;;3.94;88.48
16806;BME280;8520;50.102;20.010;2022-12-10T09:08:43;97145.31;;;4.19;87.97
16806;BME280;8520;50.102;20.010;2022-12-10T09:11:13;97154.19;;;3.59;90.06
16806;BME280;8520;50.102;20.010;2022-12-10T09:13:42;97157.50;;;3.63;88.90
16806;BME280;8520;50.102;20.010;2022-12-10T09:16:10;97152.78;;;4.00;88.68
16806;BME280;8520;50.102;20.010;2022-12-10T09:18:38;97147.41;;;4.43;87.02
16806;BME280;8520;50.102;20.010;2022-12-10T09:21:07;97145.16;;;4.74;86.34
16806;BME280;8520;50.102;20.010;2022-12-10T09:23:37;97152.19;;;5.23;85.00
16806;BME280;8520;50.102;20.010;2022-12-10T09:26:06;97156.53;;;5.30;84.18
16806;BME280;8520;50.102;20.010;2022-12-10T09:28:34;97148.59;;;5.41;83.59
16806;BME280;8520;50.102;20.010;2022-12-10T09:31:03;97141.19;;;5.08;83.48
16806;BME280;8520;50.102;20.010;2022-12-10T09:33:40;97141.72;;;5.46;83.35
16806;BME280;8520;50.102;20.010;2022-12-10T09:36:10;97143.59;;;5.16;83.60
16806;BME280;8520;50.102;20.010;2022-12-10T09:38:41;97133.06;;;4.99;83.36
16806;BME280;8520;50.102;20.010;2022-12-10T09:41:28;97134.63;;;4.91;83.73
16806;BME280;8520;50.102;20.010;2022-12-10T09:44:07;97132.38;;;5.37;83.14
16806;BME280;8520;50.102;20.010;2022-12-10T09:46:46;97127.56;;;5.71;82.19
16806;BME280;8520;50.102;20.010;2022-12-10T09:49:25;97123.41;;;5.76;80.91
16806;BME280;8520;50.102;20.010;2022-12-10T09:51:56;97118.19;;;6.02;81.59
16806;BME280;8520;50.102;20.010;2022-12-10T09:54:29;97129.69;;;5.91;80.87
16806;BME280;8520;50.102;20.010;2022-12-10T09:56:58;97143.06;;;5.89;80.97
16806;BME280;8520;50.102;20.010;2022-12-10T09:59:31;97132.84;;;6.13;80.30
16806;BME280;8520;50.102;20.010;2022-12-10T10:02:03;97123.78;;;6.37;79.69
16806;BME280;8520;50.102;20.010;2022-12-10T10:04:38;97127.25;;;6.37;79.51
16806;BME280;8520;50.102;20.010;2022-12-10T10:07:06;97134.34;;;6.44;78.51
16806;BME280;8520;50.102;20.010;2022-12-10T10:09:38;97130.09;;;6.28;78.02
16806;BME280;8520;50.102;20.010;2022-12-10T10:12:12;97137.72;;;6.39;78.23
16806;BME280;8520;50.102;20.010;2022-12-10T10:14:42;97132.22;;;5.80;78.42
16806;BME280;8520;50.102;20.010;2022-12-10T10:17:16;97129.72;;;6.06;79.44
16806;BME280;8520;50.102;20.010;2022-12-10T10:19:46;97135.50;;;6.22;78.90
16806;BME280;8520;50.102;20.010;2022-12-10T10:22:16;97140.94;;;5.69;79.40
16806;BME280;8520;50.102;20.010;2022-12-10T10:24:46;97134.09;;;5.88;80.12
16806;BME280;8520;50.102;20.010;2022-12-10T10:27:15;97123.28;;;5.94;79.84
16806;BME280;8520;50.102;20.010;2022-12-10T10:29:46;97129.00;;;5.81;79.91
16806;BME280;8520;50.102;20.010;2022-12-10T10:32:25;97127.09;;;5.72;79.57
16806;BME280;8520;50.102;20.010;2022-12-10T10:34:55;97132.25;;;5.94;79.67
16806;BME280;8520;50.102;20.010;2022-12-10T10:37:26;97124.81;;;5.95;79.57
16806;BME280;8520;50.102;20.010;2022-12-10T10:39:57;97115.84;;;5.56;80.45
16806;BME280;8520;50.102;20.010;2022-12-10T10:42:32;97113.34;;;5.82;79.35
16806;BME280;8520;50.102;20.010;2022-12-10T10:45:02;97107.38;;;6.22;79.24
16806;BME280;8520;50.102;20.010;2022-12-10T10:47:32;97102.66;;;6.22;78.88
16806;BME280;8520;50.102;20.010;2022-12-10T10:50:02;97103.28;;;6.47;77.85
16806;BME280;8520;50.102;20.010;2022-12-10T10:52:38;97110.63;;;6.70;77.37
16806;BME280;8520;50.102;20.010;2022-12-10T10:55:30;97113.09;;;6.68;76.72
16806;BME280;8520;50.102;20.010;2022-12-10T10:57:58;97111.00;;;6.63;76.10
16806;BME280;8520;50.102;20.010;2022-12-10T11:00:27;97119.31;;;6.54;76.02
16806;BME280;8520;50.102;20.010;2022-12-10T11:02:57;97124.16;;;6.44;76.06
16806;BME280;8520;50.102;20.010;2022-12-10T11:05:29;97123.78;;;6.37;76.33
16806;BME280;8520;50.102;20.010;2022-12-10T11:08:04;97131.78;;;6.11;76.51
16806;BME280;8520;50.102;20.010;2022-12-10T11:10:34;97128.97;;;6.35;76.07
16806;BME280;8520;50.102;20.010;2022-12-10T11:13:06;97130.16;;;6.48;75.54
16806;BME280;8520;50.102;20.010;2022-12-10T11:15:36;97136.25;;;6.23;76.02
16806;BME280;8520;50.102;20.010;2022-12-10T11:18:24;97145.09;;;6.18;75.62
16806;BME280;8520;50.102;20.010;2022-12-10T11:21:01;97136.88;;;6.03;76.85
16806;BME280;8520;50.102;20.010;2022-12-10T11:23:35;97134.53;;;6.11;76.08
16806;BME280;8520;50.102;20.010;2022-12-10T11:26:21;97124.34;;;6.11;76.61
16806;BME280;8520;50.102;20.010;2022-12-10T11:29:05;97132.09;;;6.13;76.17
16806;BME280;8520;50.102;20.010;2022-12-10T11:31:46;97131.44;;;6.33;75.67
16806;BME280;8520;50.102;20.010;2022-12-10T11:34:20;97135.47;;;6.37;75.62
16806;BME280;8520;50.102;20.010;2022-12-10T11:36:59;97128.69;;;6.18;75.89
16806;BME280;8520;50.102;20.010;2022-12-10T11:39:56;97131.31;;;6.12;76.17
16806;BME280;8520;50.102;20.010;2022-12-10T11:42:36;97132.94;;;6.19;75.98
16806;BME280;8520;50.102;20.010;2022-12-10T11:45:12;97124.44;;;6.17;76.15
16806;BME280;8520;50.102;20.010;2022-12-10T11:48:00;97129.94;;;5.39;78.10
16806;BME280;8520;50.102;20.010;2022-12-10T11:50:36;97132.47;;;5.67;77.55
16806;BME280;8520;50.102;20.010;2022-12-10T11:53:16;97133.94;;;5.92;77.46
16806;BME280;8520;50.102;20.010;2022-12-10T11:55:52;97130.72;;;5.93;77.30
16806;BME280;8520;50.102;20.010;2022-12-10T11:58:37;97133.59;;;6.14;76.43
16806;BME280;8520;50.102;20.010;2022-12-10T12:01:15;97136.25;;;6.23;76.22
16806;BME280;8520;50.102;20.010;2022-12-10T12:07:00;97129.88;;;5.87;76.87
16806;BME280;8520;50.102;20.010;2022-12-10T12:09:39;97130.94;;;6.05;76.61
16806;BME280;8520;50.102;20.010;2022-12-10T12:12:20;97122.81;;;6.10;76.69
16806;BME280;8520;50.102;20.010;2022-12-10T12:14:58;97133.56;;;5.99;76.62
16806;BME280;8520;50.102;20.010;2022-12-10T12:17:30;97124.81;;;5.95;76.51
16806;BME280;8520;50.102;20.010;2022-12-10T12:20:02;97132.88;;;5.89;76.10
16806;BME280;8520;50.102;20.010;2022-12-10T12:22:34;97136.38;;;5.90;76.43
16806;BME280;8520;50.102;20.010;2022-12-10T12:25:07;97134.28;;;5.85;76.83
16806;BME280;8520;50.102;20.010;2022-12-10T12:27:38;97119.16;;;5.98;76.43
16806;BME280;8520;50.102;20.010;2022-12-10T12:30:15;97123.75;;;5.92;77.18
16806;BME280;8520;50.102;20.010;2022-12-10T12:32:51;97123.53;;;5.81;77.00
16806;BME280;8520;50.102;20.010;2022-12-10T12:35:25;97121.56;;;5.82;77.53
16806;BME280;8520;50.102;20.010;2022-12-10T12:38:00;97111.22;;;6.01;77.07
16806;BME280;8520;50.102;20.010;2022-12-10T12:40:34;97108.03;;;6.02;76.83
16806;BME280;8520;50.102;20.010;2022-12-10T12:43:08;97100.34;;;5.77;77.20
16806;BME280;8520;50.102;20.010;2022-12-10T12:45:41;97097.59;;;5.62;78.17
16806;BME280;8520;50.102;20.010;2022-12-10T12:48:17;97105.06;;;5.37;78.97
16806;BME280;8520;50.102;20.010;2022-12-10T12:50:51;97106.28;;;5.36;79.09
16806;BME280;8520;50.102;20.010;2022-12-10T12:53:23;97117.38;;;5.09;79.93
16806;BME280;8520;50.102;20.010;2022-12-10T12:56:04;97123.78;;;5.30;79.59
16806;BME280;8520;50.102;20.010;2022-12-10T12:58:40;97118.22;;;5.24;79.51
16806;BME280;8520;50.102;20.010;2022-12-10T13:01:20;97133.38;;;5.25;79.66
16806;BME280;8520;50.102;20.010;2022-12-10T13:03:51;97132.75;;;5.30;79.95
16806;BME280;8520;50.102;20.010;2022-12-10T13:06:23;97125.75;;;5.29;79.53
16806;BME280;8520;50.102;20.010;2022-12-10T13:08:58;97123.66;;;5.00;80.38
16806;BME280;8520;50.102;20.010;2022-12-10T13:11:44;97123.28;;;4.83;81.52
16806;BME280;8520;50.102;20.010;2022-12-10T13:14:32;97119.19;;;4.88;81.46
16806;BME280;8520;50.102;20.010;2022-12-10T13:17:24;97115.94;;;5.23;80.50
16806;BME280;8520;50.102;20.010;2022-12-10T13:20:31;97131.25;;;5.20;79.95
16806;BME280;8520;50.102;20.010;2022-12-10T13:23:00;97132.84;;;5.36;79.68
16806;BME280;8520;50.102;20.010;2022-12-10T13:25:55;97136.97;;;5.31;79.41
16806;BME280;8520;50.102;20.010;2022-12-10T13:28:30;97142.88;;;5.30;79.67
16806;BME280;8520;50.102;20.010;2022-12-10T13:31:32;97147.84;;;5.40;79.40
16806;BME280;8520;50.102;20.010;2022-12-10T13:34:22;97154.53;;;5.39;79.47
16806;BME280;8520;50.102;20.010;2022-12-10T13:37:10;97159.22;;;5.39;79.64
16806;BME280;8520;50.102;20.010;2022-12-10T13:39:48;97159.47;;;5.50;79.24